sensor_id;sensor_type;location;lat;lon;timestamp;pressure;altitude;pressure_sealevel;temperature;humidity
17230;BME280;8731;50.364;8.958;2022-08-03T00:02:55;100101.19;;;20.13;58.48
17230;BME280;8731;50.364;8.958;2022-08-03T00:07:18;100093.41;;;19.97;58.60
17230;BME280;8731;50.364;8.958;2022-08-03T00:11:41;100101.81;;;19.93;58.58
17230;BME280;8731;50.364;8.958;2022-08-03T00:16:04;100094.44;;;19.84;58.59
17230;BME280;8731;50.364;8.958;2022-08-03T00:20:26;100095.63;;;19.75;58.82
17230;BME280;8731;50.364;8.958;2022-08-03T00:24:48;100093.53;;;19.68;58.71
17230;BME280;8731;50.364;8.958;2022-08-03T00:29:12;100085.13;;;19.72;58.90
17230;BME280;8731;50.364;8.958;2022-08-03T00:33:34;100088.66;;;19.57;59.70
17230;BME280;8731;50.364;8.958;2022-08-03T00:37:57;100092.84;;;19.55;59.86
17230;BME280;8731;50.364;8.958;2022-08-03T00:42:19;100085.09;;;19.55;59.97
17230;BME280;8731;50.364;8.958;2022-08-03T00:46:43;100084.72;;;19.49;59.39
17230;BME280;8731;50.364;8.958;2022-08-03T00:51:05;100082.53;;;19.41;60.51
17230;BME280;8731;50.364;8.958;2022-08-03T00:55:28;100087.97;;;19.30;60.66
17230;BME280;8731;50.364;8.958;2022-08-03T00:59:50;100090.38;;;19.27;60.98
17230;BME280;8731;50.364;8.958;2022-08-03T01:04:14;100089.66;;;19.30;60.90
17230;BME280;8731;50.364;8.958;2022-08-03T01:08:41;100088.09;;;19.17;61.55
17230;BME280;8731;50.364;8.958;2022-08-03T01:13:21;100092.44;;;19.18;61.31
17230;BME280;8731;50.364;8.958;2022-08-03T01:17:54;100090.13;;;19.08;61.75
17230;BME280;8731;50.364;8.958;2022-08-03T01:22:36;100084.53;;;19.00;61.91
17230;BME280;8731;50.364;8.958;2022-08-03T01:27:18;100087.84;;;18.98;62.15
17230;BME280;8731;50.364;8.958;2022-08-03T01:31:52;100093.72;;;18.95;62.61
17230;BME280;8731;50.364;8.958;2022-08-03T01:36:22;100090.16;;;18.93;62.11
17230;BME280;8731;50.364;8.958;2022-08-03T01:40:47;100094.06;;;18.72;63.77
17230;BME280;8731;50.364;8.958;2022-08-03T01:45:13;100089.88;;;18.74;62.95
17230;BME280;8731;50.364;8.958;2022-08-03T01:49:42;100090.22;;;18.65;63.86
17230;BME280;8731;50.364;8.958;2022-08-03T01:54:06;100094.44;;;18.50;64.85
17230;BME280;8731;50.364;8.958;2022-08-03T01:58:33;100088.56;;;18.53;64.15
17230;BME280;8731;50.364;8.958;2022-08-03T02:02:57;100084.94;;;18.49;63.76
17230;BME280;8731;50.364;8.958;2022-08-03T02:07:22;100075.47;;;18.35;65.14
17230;BME280;8731;50.364;8.958;2022-08-03T02:11:47;100076.69;;;18.27;65.58
17230;BME280;8731;50.364;8.958;2022-08-03T02:16:12;100085.22;;;18.26;65.17
17230;BME280;8731;50.364;8.958;2022-08-03T02:20:36;100073.16;;;18.25;65.04
17230;BME280;8731;50.364;8.958;2022-08-03T02:25:01;100080.28;;;18.16;65.52
17230;BME280;8731;50.364;8.958;2022-08-03T02:29:26;100070.50;;;18.10;65.23
17230;BME280;8731;50.364;8.958;2022-08-03T02:33:55;100082.84;;;18.01;65.38
17230;BME280;8731;50.364;8.958;2022-08-03T02:38:23;100081.88;;;17.99;65.64
17230;BME280;8731;50.364;8.958;2022-08-03T02:42:52;100085.34;;;17.99;64.72
17230;BME280;8731;50.364;8.958;2022-08-03T02:47:18;100077.34;;;17.82;66.67
17230;BME280;8731;50.364;8.958;2022-08-03T02:51:42;100080.72;;;17.81;65.93
17230;BME280;8731;50.364;8.958;2022-08-03T02:56:08;100081.72;;;17.69;66.59
17230;BME280;8731;50.364;8.958;2022-08-03T03:00:33;100080.59;;;17.66;66.53
17230;BME280;8731;50.364;8.958;2022-08-03T03:04:56;100083.19;;;17.66;66.48
17230;BME280;8731;50.364;8.958;2022-08-03T03:09:21;100087.84;;;17.58;66.53
17230;BME280;8731;50.364;8.958;2022-08-03T03:13:45;100080.03;;;17.57;67.12
17230;BME280;8731;50.364;8.958;2022-08-03T03:18:10;100078.44;;;17.59;67.08
17230;BME280;8731;50.364;8.958;2022-08-03T03:22:35;100075.06;;;17.60;66.78
17230;BME280;8731;50.364;8.958;2022-08-03T03:26:59;100080.22;;;17.60;67.22
17230;BME280;8731;50.364;8.958;2022-08-03T03:31:21;100079.25;;;17.58;67.27
17230;BME280;8731;50.364;8.958;2022-08-03T03:35:45;100084.00;;;17.52;67.89
17230;BME280;8731;50.364;8.958;2022-08-03T03:40:09;100086.38;;;17.48;68.33
17230;BME280;8731;50.364;8.958;2022-08-03T03:44:32;100090.34;;;17.43;68.74
17230;BME280;8731;50.364;8.958;2022-08-03T03:48:54;100087.97;;;17.33;69.39
17230;BME280;8731;50.364;8.958;2022-08-03T03:53:18;100078.56;;;17.34;68.38
17230;BME280;8731;50.364;8.958;2022-08-03T03:57:41;100080.16;;;17.32;68.52
17230;BME280;8731;50.364;8.958;2022-08-03T04:02:04;100082.22;;;17.11;70.16
17230;BME280;8731;50.364;8.958;2022-08-03T04:06:26;100086.69;;;17.13;69.45
17230;BME280;8731;50.364;8.958;2022-08-03T04:11:13;100077.78;;;17.08;70.02
17230;BME280;8731;50.364;8.958;2022-08-03T04:15:40;100082.84;;;17.07;68.68
17230;BME280;8731;50.364;8.958;2022-08-03T04:20:04;100091.25;;;17.04;69.10
17230;BME280;8731;50.364;8.958;2022-08-03T04:24:32;100092.78;;;17.02;68.90
17230;BME280;8731;50.364;8.958;2022-08-03T04:28:59;100092.50;;;16.98;69.06
17230;BME280;8731;50.364;8.958;2022-08-03T04:33:24;100091.59;;;16.97;69.67
17230;BME280;8731;50.364;8.958;2022-08-03T04:37:50;100099.72;;;16.90;70.81
17230;BME280;8731;50.364;8.958;2022-08-03T04:42:15;100108.44;;;16.92;70.06
17230;BME280;8731;50.364;8.958;2022-08-03T04:46:42;100099.53;;;16.87;71.94
17230;BME280;8731;50.364;8.958;2022-08-03T04:51:04;100111.00;;;16.92;71.42
17230;BME280;8731;50.364;8.958;2022-08-03T04:55:28;100107.13;;;16.99;71.41
17230;BME280;8731;50.364;8.958;2022-08-03T04:59:52;100103.31;;;17.05;70.79
17230;BME280;8731;50.364;8.958;2022-08-03T05:04:17;100109.94;;;17.15;70.32
17230;BME280;8731;50.364;8.958;2022-08-03T05:08:39;100105.47;;;17.65;69.85
17230;BME280;8731;50.364;8.958;2022-08-03T05:13:02;100108.69;;;18.30;69.21
17230;BME280;8731;50.364;8.958;2022-08-03T05:17:24;100109.19;;;18.95;67.72
17230;BME280;8731;50.364;8.958;2022-08-03T05:21:48;100103.41;;;19.60;66.40
17230;BME280;8731;50.364;8.958;2022-08-03T05:26:11;100101.19;;;20.13;64.48
17230;BME280;8731;50.364;8.958;2022-08-03T05:30:33;100108.00;;;20.94;63.22
17230;BME280;8731;50.364;8.958;2022-08-03T05:34:56;100105.88;;;21.74;61.11
17230;BME280;8731;50.364;8.958;2022-08-03T05:39:21;100098.41;;;22.56;59.86
17230;BME280;8731;50.364;8.958;2022-08-03T05:43:44;100094.63;;;22.88;57.03
17230;BME280;8731;50.364;8.958;2022-08-03T05:48:06;100100.19;;;23.60;55.88
17230;BME280;8731;50.364;8.958;2022-08-03T05:52:29;100095.03;;;24.29;54.90
17230;BME280;8731;50.364;8.958;2022-08-03T05:56:53;100091.59;;;24.54;54.87
17230;BME280;8731;50.364;8.958;2022-08-03T06:01:15;100099.13;;;25.21;51.90
17230;BME280;8731;50.364;8.958;2022-08-03T06:05:38;100095.75;;;25.79;51.09
17230;BME280;8731;50.364;8.958;2022-08-03T06:10:00;100109.56;;;25.75;51.92
17230;BME280;8731;50.364;8.958;2022-08-03T06:14:25;100103.25;;;26.55;50.65
17230;BME280;8731;50.364;8.958;2022-08-03T06:18:47;100103.38;;;25.44;53.05
17230;BME280;8731;50.364;8.958;2022-08-03T06:23:09;100100.09;;;27.34;47.87
17230;BME280;8731;50.364;8.958;2022-08-03T06:27:32;100095.09;;;27.81;48.04
17230;BME280;8731;50.364;8.958;2022-08-03T06:31:57;100091.34;;;28.51;47.07
17230;BME280;8731;50.364;8.958;2022-08-03T06:36:19;100095.63;;;28.46;45.50
17230;BME280;8731;50.364;8.958;2022-08-03T06:40:41;100094.38;;;27.88;49.52
17230;BME280;8731;50.364;8.958;2022-08-03T06:45:05;100092.50;;;28.65;47.61
17230;BME280;8731;50.364;8.958;2022-08-03T06:49:30;100096.38;;;29.37;44.89
17230;BME280;8731;50.364;8.958;2022-08-03T06:53:52;100095.19;;;29.74;44.18
17230;BME280;8731;50.364;8.958;2022-08-03T06:58:14;100090.88;;;30.46;43.03
17230;BME280;8731;50.364;8.958;2022-08-03T07:02:37;100091.97;;;30.62;41.86
17230;BME280;8731;50.364;8.958;2022-08-03T07:07:01;100097.50;;;30.92;38.92
17230;BME280;8731;50.364;8.958;2022-08-03T07:11:24;100092.59;;;31.30;40.13
17230;BME280;8731;50.364;8.958;2022-08-03T07:15:47;100084.28;;;31.97;37.82
17230;BME280;8731;50.364;8.958;2022-08-03T07:20:10;100087.72;;;31.87;38.67
17230;BME280;8731;50.364;8.958;2022-08-03T07:24:35;100088.88;;;32.42;37.41
17230;BME280;8731;50.364;8.958;2022-08-03T07:28:58;100086.31;;;32.80;37.25
17230;BME280;8731;50.364;8.958;2022-08-03T07:33:20;100085.47;;;33.42;36.05
17230;BME280;8731;50.364;8.958;2022-08-03T07:37:43;100083.66;;;32.74;34.70
17230;BME280;8731;50.364;8.958;2022-08-03T07:42:06;100084.50;;;33.89;34.80
17230;BME280;8731;50.364;8.958;2022-08-03T07:46:29;100089.63;;;34.38;34.70
17230;BME280;8731;50.364;8.958;2022-08-03T07:50:52;100082.31;;;34.80;33.01
17230;BME280;8731;50.364;8.958;2022-08-03T07:55:14;100086.47;;;35.13;32.07
17230;BME280;8731;50.364;8.958;2022-08-03T07:59:39;100075.69;;;35.32;31.79
17230;BME280;8731;50.364;8.958;2022-08-03T08:04:02;100080.84;;;35.52;31.79
17230;BME280;8731;50.364;8.958;2022-08-03T08:08:24;100071.72;;;35.78;32.42
17230;BME280;8731;50.364;8.958;2022-08-03T08:12:47;100067.81;;;35.23;31.84
17230;BME280;8731;50.364;8.958;2022-08-03T08:17:10;100064.50;;;35.92;30.49
17230;BME280;8731;50.364;8.958;2022-08-03T08:21:33;100061.53;;;36.15;29.79
17230;BME280;8731;50.364;8.958;2022-08-03T08:25:55;100067.72;;;36.15;29.60
17230;BME280;8731;50.364;8.958;2022-08-03T08:30:19;100066.44;;;36.48;29.04
17230;BME280;8731;50.364;8.958;2022-08-03T08:34:44;100067.47;;;36.37;29.18
17230;BME280;8731;50.364;8.958;2022-08-03T08:39:06;100063.19;;;36.86;28.56
17230;BME280;8731;50.364;8.958;2022-08-03T08:43:28;100065.69;;;36.97;31.07
17230;BME280;8731;50.364;8.958;2022-08-03T08:47:51;100063.91;;;36.38;30.89
17230;BME280;8731;50.364;8.958;2022-08-03T08:52:18;100060.72;;;37.30;27.06
17230;BME280;8731;50.364;8.958;2022-08-03T08:56:45;100062.72;;;37.15;27.79
17230;BME280;8731;50.364;8.958;2022-08-03T09:01:09;100055.88;;;36.42;28.27
17230;BME280;8731;50.364;8.958;2022-08-03T09:05:31;100058.78;;;37.38;27.73
17230;BME280;8731;50.364;8.958;2022-08-03T09:09:55;100045.91;;;37.64;25.97
17230;BME280;8731;50.364;8.958;2022-08-03T09:14:18;100051.63;;;36.91;29.16
17230;BME280;8731;50.364;8.958;2022-08-03T09:18:41;100047.47;;;37.74;27.05
17230;BME280;8731;50.364;8.958;2022-08-03T09:23:06;100054.16;;;37.49;26.24
17230;BME280;8731;50.364;8.958;2022-08-03T09:27:40;100040.78;;;37.54;26.64
17230;BME280;8731;50.364;8.958;2022-08-03T09:32:04;100046.81;;;37.62;29.93
17230;BME280;8731;50.364;8.958;2022-08-03T09:36:33;100038.53;;;37.78;25.84
17230;BME280;8731;50.364;8.958;2022-08-03T09:40:57;100043.00;;;37.76;26.61
17230;BME280;8731;50.364;8.958;2022-08-03T09:45:26;100028.22;;;38.45;26.19
17230;BME280;8731;50.364;8.958;2022-08-03T09:49:56;100035.56;;;38.35;25.52
17230;BME280;8731;50.364;8.958;2022-08-03T09:54:25;100034.50;;;38.43;25.33
17230;BME280;8731;50.364;8.958;2022-08-03T09:58:47;100030.44;;;38.65;27.15
17230;BME280;8731;50.364;8.958;2022-08-03T10:03:11;100031.88;;;38.78;25.39
17230;BME280;8731;50.364;8.958;2022-08-03T10:07:42;100024.72;;;38.80;24.61
17230;BME280;8731;50.364;8.958;2022-08-03T10:12:08;100027.09;;;38.92;24.97
17230;BME280;8731;50.364;8.958;2022-08-03T10:16:35;100019.13;;;39.25;24.00
17230;BME280;8731;50.364;8.958;2022-08-03T10:21:03;100013.03;;;39.21;25.05
17230;BME280;8731;50.364;8.958;2022-08-03T10:25:29;100007.31;;;39.35;25.16
17230;BME280;8731;50.364;8.958;2022-08-03T10:29:54;100004.78;;;38.96;24.91
17230;BME280;8731;50.364;8.958;2022-08-03T10:34:22;100007.78;;;39.49;24.28
17230;BME280;8731;50.364;8.958;2022-08-03T10:38:48;100001.69;;;39.46;25.36
17230;BME280;8731;50.364;8.958;2022-08-03T10:43:18;99995.25;;;38.51;23.36
17230;BME280;8731;50.364;8.958;2022-08-03T10:47:42;99985.66;;;39.78;25.22
17230;BME280;8731;50.364;8.958;2022-08-03T10:52:05;99984.13;;;40.01;24.71
17230;BME280;8731;50.364;8.958;2022-08-03T10:56:40;99975.03;;;40.62;23.78
17230;BME280;8731;50.364;8.958;2022-08-03T11:01:48;99973.47;;;41.08;23.58
17230;BME280;8731;50.364;8.958;2022-08-03T11:06:14;99972.84;;;41.26;23.29
17230;BME280;8731;50.364;8.958;2022-08-03T11:10:38;99979.66;;;40.29;27.35
17230;BME280;8731;50.364;8.958;2022-08-03T11:15:05;99959.38;;;40.78;24.34
17230;BME280;8731;50.364;8.958;2022-08-03T11:19:42;99962.91;;;41.05;22.36
17230;BME280;8731;50.364;8.958;2022-08-03T11:24:06;99965.09;;;40.94;23.18
17230;BME280;8731;50.364;8.958;2022-08-03T11:28:28;99962.66;;;39.74;26.04
17230;BME280;8731;50.364;8.958;2022-08-03T11:32:56;99953.69;;;40.34;24.09
17230;BME280;8731;50.364;8.958;2022-08-03T11:37:22;99952.63;;;40.12;23.31
17230;BME280;8731;50.364;8.958;2022-08-03T11:41:45;99952.22;;;39.67;23.63
17230;BME280;8731;50.364;8.958;2022-08-03T11:46:09;99956.53;;;39.71;24.07
17230;BME280;8731;50.364;8.958;2022-08-03T11:50:37;99953.69;;;38.82;25.03
17230;BME280;8731;50.364;8.958;2022-08-03T11:55:00;99948.22;;;38.51;24.28
17230;BME280;8731;50.364;8.958;2022-08-03T11:59:30;99943.09;;;38.05;24.03
17230;BME280;8731;50.364;8.958;2022-08-03T12:03:53;99942.97;;;38.11;25.08
17230;BME280;8731;50.364;8.958;2022-08-03T12:08:27;99936.78;;;38.09;24.81
17230;BME280;8731;50.364;8.958;2022-08-03T12:12:54;99930.44;;;37.77;24.82
17230;BME280;8731;50.364;8.958;2022-08-03T12:17:17;99935.25;;;37.59;24.94
17230;BME280;8731;50.364;8.958;2022-08-03T12:21:45;99932.63;;;37.11;25.71
17230;BME280;8731;50.364;8.958;2022-08-03T12:26:09;99923.38;;;36.85;25.20
17230;BME280;8731;50.364;8.958;2022-08-03T12:30:32;99927.34;;;36.60;26.62
17230;BME280;8731;50.364;8.958;2022-08-03T12:34:55;99922.63;;;35.60;27.90
17230;BME280;8731;50.364;8.958;2022-08-03T12:39:22;99918.22;;;36.24;26.26
17230;BME280;8731;50.364;8.958;2022-08-03T12:43:48;99919.53;;;36.52;26.69
17230;BME280;8731;50.364;8.958;2022-08-03T12:48:11;99921.91;;;36.14;25.92
17230;BME280;8731;50.364;8.958;2022-08-03T12:52:41;99917.94;;;36.41;25.81
17230;BME280;8731;50.364;8.958;2022-08-03T12:57:08;99912.44;;;35.97;25.93
17230;BME280;8731;50.364;8.958;2022-08-03T13:01:36;99911.09;;;35.64;25.87
17230;BME280;8731;50.364;8.958;2022-08-03T13:05:58;99914.72;;;36.19;26.40
17230;BME280;8731;50.364;8.958;2022-08-03T13:10:29;99905.25;;;36.04;26.86
17230;BME280;8731;50.364;8.958;2022-08-03T13:14:54;99900.00;;;36.01;26.79
17230;BME280;8731;50.364;8.958;2022-08-03T13:19:19;99904.13;;;35.57;28.10
17230;BME280;8731;50.364;8.958;2022-08-03T13:23:42;99898.78;;;35.60;26.72
17230;BME280;8731;50.364;8.958;2022-08-03T13:28:05;99892.56;;;35.63;28.06
17230;BME280;8731;50.364;8.958;2022-08-03T13:32:27;99892.63;;;35.60;26.71
17230;BME280;8731;50.364;8.958;2022-08-03T13:36:51;99889.22;;;35.52;27.25
17230;BME280;8731;50.364;8.958;2022-08-03T13:41:13;99886.50;;;34.73;27.51
17230;BME280;8731;50.364;8.958;2022-08-03T13:45:36;99879.00;;;35.18;27.68
17230;BME280;8731;50.364;8.958;2022-08-03T13:49:58;99874.09;;;34.85;28.86
17230;BME280;8731;50.364;8.958;2022-08-03T13:54:22;99875.53;;;35.13;28.13
17230;BME280;8731;50.364;8.958;2022-08-03T13:58:44;99869.84;;;34.67;28.58
17230;BME280;8731;50.364;8.958;2022-08-03T14:03:06;99867.28;;;34.59;28.35
17230;BME280;8731;50.364;8.958;2022-08-03T14:07:29;99861.91;;;34.65;28.86
17230;BME280;8731;50.364;8.958;2022-08-03T14:11:52;99859.31;;;34.62;28.39
17230;BME280;8731;50.364;8.958;2022-08-03T14:16:15;99854.75;;;34.73;27.64
17230;BME280;8731;50.364;8.958;2022-08-03T14:20:37;99841.38;;;34.92;27.17
17230;BME280;8731;50.364;8.958;2022-08-03T14:24:59;99843.22;;;34.82;27.83
17230;BME280;8731;50.364;8.958;2022-08-03T14:29:23;99842.94;;;35.08;28.73
17230;BME280;8731;50.364;8.958;2022-08-03T14:33:46;99834.22;;;34.98;28.51
17230;BME280;8731;50.364;8.958;2022-08-03T14:38:08;99832.31;;;35.11;28.34
17230;BME280;8731;50.364;8.958;2022-08-03T14:42:30;99830.66;;;35.01;28.20
17230;BME280;8731;50.364;8.958;2022-08-03T14:46:54;99829.81;;;34.99;28.13
17230;BME280;8731;50.364;8.958;2022-08-03T14:51:16;99832.41;;;35.03;28.11
17230;BME280;8731;50.364;8.958;2022-08-03T14:55:39;99824.97;;;34.56;28.91
17230;BME280;8731;50.364;8.958;2022-08-03T15:00:01;99822.97;;;34.80;28.09
17230;BME280;8731;50.364;8.958;2022-08-03T15:04:26;99814.00;;;34.93;28.22
17230;BME280;8731;50.364;8.958;2022-08-03T15:08:48;99811.16;;;34.24;28.34
17230;BME280;8731;50.364;8.958;2022-08-03T15:13:11;99796.69;;;34.63;27.50
17230;BME280;8731;50.364;8.958;2022-08-03T15:17:33;99799.09;;;34.87;28.48
17230;BME280;8731;50.364;8.958;2022-08-03T15:21:57;99786.19;;;34.55;26.99
17230;BME280;8731;50.364;8.958;2022-08-03T15:26:19;99796.44;;;34.86;27.99
17230;BME280;8731;50.364;8.958;2022-08-03T15:30:42;99784.94;;;34.88;28.97
17230;BME280;8731;50.364;8.958;2022-08-03T15:35:04;99779.97;;;34.59;27.88
17230;BME280;8731;50.364;8.958;2022-08-03T15:39:28;99781.13;;;34.28;28.74
17230;BME280;8731;50.364;8.958;2022-08-03T15:43:51;99778.56;;;34.20;28.16
17230;BME280;8731;50.364;8.958;2022-08-03T15:48:13;99777.56;;;34.38;27.87
17230;BME280;8731;50.364;8.958;2022-08-03T15:52:35;99773.94;;;34.46;29.53
17230;BME280;8731;50.364;8.958;2022-08-03T15:56:59;99775.47;;;34.67;28.16
17230;BME280;8731;50.364;8.958;2022-08-03T16:01:22;99763.50;;;34.31;29.17
17230;BME280;8731;50.364;8.958;2022-08-03T16:05:45;99770.34;;;34.52;28.83
17230;BME280;8731;50.364;8.958;2022-08-03T16:10:08;99755.34;;;34.51;28.96
17230;BME280;8731;50.364;8.958;2022-08-03T16:14:33;99756.47;;;34.27;28.63
17230;BME280;8731;50.364;8.958;2022-08-03T16:18:55;99749.53;;;34.17;28.03
17230;BME280;8731;50.364;8.958;2022-08-03T16:23:17;99756.34;;;34.44;29.67
17230;BME280;8731;50.364;8.958;2022-08-03T16:27:40;99757.31;;;34.29;28.74
17230;BME280;8731;50.364;8.958;2022-08-03T16:32:04;99744.94;;;34.37;28.87
17230;BME280;8731;50.364;8.958;2022-08-03T16:36:28;99751.13;;;34.30;29.56
17230;BME280;8731;50.364;8.958;2022-08-03T16:40:50;99745.03;;;34.25;29.20
17230;BME280;8731;50.364;8.958;2022-08-03T16:45:13;99754.66;;;34.37;28.97
17230;BME280;8731;50.364;8.958;2022-08-03T16:49:37;99747.59;;;34.37;29.04
17230;BME280;8731;50.364;8.958;2022-08-03T16:53:59;99744.22;;;34.18;29.92
17230;BME280;8731;50.364;8.958;2022-08-03T16:58:21;99739.81;;;34.19;29.49
17230;BME280;8731;50.364;8.958;2022-08-03T17:02:46;99740.59;;;34.27;32.13
17230;BME280;8731;50.364;8.958;2022-08-03T17:07:13;99745.00;;;34.27;30.27
17230;BME280;8731;50.364;8.958;2022-08-03T17:11:37;99746.81;;;34.25;30.26
17230;BME280;8731;50.364;8.958;2022-08-03T17:16:02;99753.31;;;33.89;29.54
17230;BME280;8731;50.364;8.958;2022-08-03T17:20:24;99747.88;;;34.08;29.92
17230;BME280;8731;50.364;8.958;2022-08-03T17:24:50;99757.53;;;34.06;31.33
17230;BME280;8731;50.364;8.958;2022-08-03T17:29:17;99751.38;;;34.10;30.93
17230;BME280;8731;50.364;8.958;2022-08-03T17:33:40;99754.00;;;34.12;31.58
17230;BME280;8731;50.364;8.958;2022-08-03T17:38:03;99753.22;;;33.98;29.93
17230;BME280;8731;50.364;8.958;2022-08-03T17:42:28;99754.97;;;34.00;30.26
17230;BME280;8731;50.364;8.958;2022-08-03T17:46:51;99750.69;;;33.89;30.89
17230;BME280;8731;50.364;8.958;2022-08-03T17:51:15;99746.28;;;33.83;30.43
17230;BME280;8731;50.364;8.958;2022-08-03T17:55:47;99749.94;;;33.67;30.59
17230;BME280;8731;50.364;8.958;2022-08-03T18:00:17;99746.47;;;33.58;30.62
17230;BME280;8731;50.364;8.958;2022-08-03T18:05:01;99748.31;;;33.50;30.55
17230;BME280;8731;50.364;8.958;2022-08-03T18:09:26;99746.50;;;33.55;31.88
17230;BME280;8731;50.364;8.958;2022-08-03T18:13:57;99748.31;;;33.50;32.22
17230;BME280;8731;50.364;8.958;2022-08-03T18:18:29;99746.63;;;33.40;33.37
17230;BME280;8731;50.364;8.958;2022-08-03T18:22:56;99749.28;;;33.31;33.09
17230;BME280;8731;50.364;8.958;2022-08-03T18:27:19;99746.81;;;32.99;32.54
17230;BME280;8731;50.364;8.958;2022-08-03T18:31:44;99745.06;;;33.00;33.61
17230;BME280;8731;50.364;8.958;2022-08-03T18:36:09;99749.53;;;32.75;33.01
17230;BME280;8731;50.364;8.958;2022-08-03T18:40:31;99753.09;;;32.66;33.08
17230;BME280;8731;50.364;8.958;2022-08-03T18:44:54;99757.56;;;32.47;33.33
17230;BME280;8731;50.364;8.958;2022-08-03T18:49:27;99763.72;;;32.45;34.12
17230;BME280;8731;50.364;8.958;2022-08-03T18:54:01;99754.06;;;32.30;33.89
17230;BME280;8731;50.364;8.958;2022-08-03T18:58:33;99757.59;;;32.06;33.84
17230;BME280;8731;50.364;8.958;2022-08-03T19:03:02;99768.13;;;31.85;34.93
17230;BME280;8731;50.364;8.958;2022-08-03T19:07:32;99760.19;;;31.69;35.12
17230;BME280;8731;50.364;8.958;2022-08-03T19:12:01;99765.44;;;31.53;36.04
17230;BME280;8731;50.364;8.958;2022-08-03T19:16:33;99773.31;;;31.43;36.05
17230;BME280;8731;50.364;8.958;2022-08-03T19:20:58;99777.59;;;31.14;36.42
17230;BME280;8731;50.364;8.958;2022-08-03T19:25:23;99777.41;;;30.68;37.20
17230;BME280;8731;50.364;8.958;2022-08-03T19:29:47;99785.31;;;30.73;36.73
17230;BME280;8731;50.364;8.958;2022-08-03T19:34:11;99791.03;;;30.11;38.11
17230;BME280;8731;50.364;8.958;2022-08-03T19:38:34;99792.88;;;30.27;37.81
17230;BME280;8731;50.364;8.958;2022-08-03T19:42:59;99788.94;;;29.75;38.53
17230;BME280;8731;50.364;8.958;2022-08-03T19:47:32;99788.22;;;29.91;37.37
17230;BME280;8731;50.364;8.958;2022-08-03T19:51:57;99793.34;;;29.80;37.78
17230;BME280;8731;50.364;8.958;2022-08-03T19:56:22;99790.50;;;29.56;38.14
17230;BME280;8731;50.364;8.958;2022-08-03T20:00:47;99789.28;;;29.26;38.92
17230;BME280;8731;50.364;8.958;2022-08-03T20:05:11;99788.28;;;29.15;39.22
17230;BME280;8731;50.364;8.958;2022-08-03T20:09:34;99786.38;;;29.02;39.79
17230;BME280;8731;50.364;8.958;2022-08-03T20:13:57;99795.00;;;28.92;39.20
17230;BME280;8731;50.364;8.958;2022-08-03T20:18:20;99787.63;;;28.66;39.80
17230;BME280;8731;50.364;8.958;2022-08-03T20:22:45;99786.75;;;28.64;39.91
17230;BME280;8731;50.364;8.958;2022-08-03T20:27:14;99787.13;;;28.33;40.88
17230;BME280;8731;50.364;8.958;2022-08-03T20:31:40;99786.06;;;28.20;40.99
17230;BME280;8731;50.364;8.958;2022-08-03T20:36:03;99787.66;;;28.13;41.04
17230;BME280;8731;50.364;8.958;2022-08-03T20:40:27;99789.03;;;27.90;41.69
17230;BME280;8731;50.364;8.958;2022-08-03T20:44:49;99796.44;;;27.64;41.91
17230;BME280;8731;50.364;8.958;2022-08-03T20:49:16;99785.31;;;27.29;42.53
17230;BME280;8731;50.364;8.958;2022-08-03T20:53:41;99793.41;;;27.44;42.57
17230;BME280;8731;50.364;8.958;2022-08-03T20:58:08;99795.81;;;27.32;42.58
17230;BME280;8731;50.364;8.958;2022-08-03T21:02:31;99789.53;;;27.23;42.90
17230;BME280;8731;50.364;8.958;2022-08-03T21:06:57;99797.16;;;27.12;42.83
17230;BME280;8731;50.364;8.958;2022-08-03T21:11:24;99794.09;;;26.92;43.66
17230;BME280;8731;50.364;8.958;2022-08-03T21:15:51;99785.19;;;26.82;44.17
17230;BME280;8731;50.364;8.958;2022-08-03T21:20:14;99783.22;;;26.72;43.88
17230;BME280;8731;50.364;8.958;2022-08-03T21:24:39;99777.75;;;26.60;44.30
17230;BME280;8731;50.364;8.958;2022-08-03T21:29:03;99780.81;;;26.42;45.09
17230;BME280;8731;50.364;8.958;2022-08-03T21:33:28;99781.94;;;26.17;45.56
17230;BME280;8731;50.364;8.958;2022-08-03T21:37:52;99778.88;;;25.99;45.45
17230;BME280;8731;50.364;8.958;2022-08-03T21:42:28;99780.81;;;25.72;46.62
17230;BME280;8731;50.364;8.958;2022-08-03T21:46:52;99773.41;;;25.55;46.16
17230;BME280;8731;50.364;8.958;2022-08-03T21:51:18;99777.91;;;25.61;46.49
17230;BME280;8731;50.364;8.958;2022-08-03T21:55:49;99777.66;;;25.52;46.76
17230;BME280;8731;50.364;8.958;2022-08-03T22:00:18;99776.59;;;25.45;46.81
17230;BME280;8731;50.364;8.958;2022-08-03T22:04:42;99771.56;;;25.20;47.64
17230;BME280;8731;50.364;8.958;2022-08-03T22:09:06;99774.25;;;24.93;48.57
17230;BME280;8731;50.364;8.958;2022-08-03T22:13:28;99771.22;;;25.07;48.14
17230;BME280;8731;50.364;8.958;2022-08-03T22:17:51;99769.06;;;24.93;48.62
17230;BME280;8731;50.364;8.958;2022-08-03T22:22:17;99773.28;;;24.89;48.50
17230;BME280;8731;50.364;8.958;2022-08-03T22:26:41;99771.31;;;24.82;48.85
17230;BME280;8731;50.364;8.958;2022-08-03T22:31:25;99770.50;;;24.55;48.96
17230;BME280;8731;50.364;8.958;2022-08-03T22:35:49;99789.31;;;24.44;49.81
17230;BME280;8731;50.364;8.958;2022-08-03T22:40:16;99780.31;;;24.35;49.69
17230;BME280;8731;50.364;8.958;2022-08-03T22:44:39;99768.66;;;24.24;49.97
17230;BME280;8731;50.364;8.958;2022-08-03T22:49:02;99779.22;;;24.01;50.76
17230;BME280;8731;50.364;8.958;2022-08-03T22:53:25;99781.72;;;23.98;51.09
17230;BME280;8731;50.364;8.958;2022-08-03T22:57:47;99785.16;;;23.97;51.31
17230;BME280;8731;50.364;8.958;2022-08-03T23:02:15;99781.72;;;23.98;51.33
17230;BME280;8731;50.364;8.958;2022-08-03T23:06:41;99782.50;;;23.96;51.55
17230;BME280;8731;50.364;8.958;2022-08-03T23:11:06;99785.63;;;23.85;51.31
17230;BME280;8731;50.364;8.958;2022-08-03T23:15:29;99791.63;;;23.83;51.60
17230;BME280;8731;50.364;8.958;2022-08-03T23:19:55;99792.44;;;23.82;51.18
17230;BME280;8731;50.364;8.958;2022-08-03T23:24:22;99789.66;;;23.76;51.63
17230;BME280;8731;50.364;8.958;2022-08-03T23:28:45;99790.09;;;23.64;51.74
17230;BME280;8731;50.364;8.958;2022-08-03T23:33:11;99796.53;;;23.50;52.01